createdAt,value
2019-06-26T00:00:49.971Z,23.71
2019-06-26T00:01:50.214Z,23.58
2019-06-26T00:02:50.441Z,23.77
2019-06-26T00:03:50.670Z,23.80
2019-06-26T00:04:50.903Z,23.66
2019-06-26T00:05:51.133Z,23.61
2019-06-26T00:06:51.391Z,23.59
2019-06-26T00:07:51.600Z,23.56
2019-06-26T00:08:51.837Z,23.54
2019-06-26T00:09:52.066Z,23.50
2019-06-26T00:10:52.300Z,23.58
2019-06-26T00:11:52.532Z,23.50
2019-06-26T00:12:52.763Z,23.58
2019-06-26T00:13:52.996Z,23.47
2019-06-26T00:14:53.230Z,23.47
2019-06-26T00:15:53.461Z,23.55
2019-06-26T00:16:53.692Z,23.40
2019-06-26T00:17:53.924Z,23.50
2019-06-26T00:18:54.155Z,23.46
2019-06-26T00:19:54.391Z,23.47
2019-06-26T00:20:54.619Z,23.44
2019-06-26T00:21:54.854Z,23.44
2019-06-26T00:22:55.092Z,23.43
2019-06-26T00:23:55.314Z,23.43
2019-06-26T00:24:55.552Z,23.36
2019-06-26T00:25:55.778Z,23.44
2019-06-26T00:26:56.013Z,23.40
2019-06-26T00:27:56.238Z,23.37
2019-06-26T00:28:56.470Z,23.36
2019-06-26T00:29:56.702Z,23.39
2019-06-26T00:30:56.964Z,23.31
2019-06-26T00:31:57.192Z,23.43
2019-06-26T00:32:57.399Z,23.39
2019-06-26T00:33:57.633Z,23.31
2019-06-26T00:34:57.868Z,23.31
2019-06-26T00:35:58.096Z,23.37
2019-06-26T00:36:58.323Z,23.24
2019-06-26T00:37:58.570Z,23.31
2019-06-26T00:38:58.794Z,23.23
2019-06-26T00:39:59.026Z,23.13
2019-06-26T00:40:59.257Z,23.20
2019-06-26T00:41:59.490Z,23.09
2019-06-26T00:42:59.723Z,23.08
2019-06-26T00:43:59.953Z,23.15
2019-06-26T00:45:00.206Z,23.10
2019-06-26T00:46:00.415Z,23.12
2019-06-26T00:47:00.645Z,22.93
2019-06-26T00:48:00.879Z,22.88
2019-06-26T00:49:01.113Z,22.90
2019-06-26T00:50:01.443Z,22.83
2019-06-26T00:51:01.573Z,22.78
2019-06-26T00:52:01.811Z,22.78
2019-06-26T00:53:02.045Z,22.59
2019-06-26T00:54:02.260Z,22.59
2019-06-26T00:55:02.489Z,22.59
2019-06-26T00:56:02.719Z,22.60
2019-06-26T00:57:03.040Z,22.60
2019-06-26T00:58:03.277Z,22.72
2019-06-26T00:59:03.413Z,22.68
2019-06-26T01:00:03.683Z,22.60
2019-06-26T01:01:03.875Z,22.63
2019-06-26T01:02:04.107Z,22.66
2019-06-26T01:03:04.339Z,22.68
2019-06-26T01:04:04.570Z,22.75
2019-06-26T01:05:04.802Z,22.65
2019-06-26T01:06:05.036Z,22.73
2019-06-26T01:07:05.270Z,22.72
2019-06-26T01:08:05.499Z,22.70
2019-06-26T01:09:05.729Z,22.72
2019-06-26T01:10:05.963Z,22.70
2019-06-26T01:11:06.193Z,22.76
2019-06-26T01:12:06.422Z,22.70
2019-06-26T01:13:06.654Z,22.66
2019-06-26T01:14:06.894Z,22.70
2019-06-26T01:15:07.120Z,22.68
2019-06-26T01:16:07.350Z,22.66
2019-06-26T01:17:07.583Z,22.68
2019-06-26T01:18:07.816Z,22.59
2019-06-26T01:19:08.044Z,22.54
2019-06-26T01:20:08.276Z,22.62
2019-06-26T01:21:08.509Z,22.69
2019-06-26T01:22:08.740Z,22.62
2019-06-26T01:23:08.974Z,22.62
2019-06-26T01:24:09.204Z,22.70
2019-06-26T01:25:09.432Z,22.59
2019-06-26T01:26:09.664Z,22.57
2019-06-26T01:27:09.897Z,22.47
2019-06-26T01:28:10.132Z,22.51
2019-06-26T01:29:10.356Z,22.57
2019-06-26T01:30:10.590Z,22.54
2019-06-26T01:31:10.821Z,22.54
2019-06-26T01:32:11.054Z,22.47
2019-06-26T01:33:11.284Z,22.50
2019-06-26T01:34:11.517Z,22.43
2019-06-26T01:35:11.746Z,22.44
2019-06-26T01:36:11.975Z,22.38
2019-06-26T01:37:12.211Z,22.36
2019-06-26T01:38:12.442Z,22.39
2019-06-26T01:39:12.678Z,22.35
2019-06-26T01:40:12.903Z,22.32
2019-06-26T01:41:13.134Z,22.32
2019-06-26T01:42:13.372Z,22.38
2019-06-26T01:43:13.598Z,22.20
2019-06-26T01:44:15.471Z,22.30
2019-06-26T01:45:14.059Z,22.22
2019-06-26T01:46:14.295Z,22.30
2019-06-26T01:47:14.526Z,22.17
2019-06-26T01:48:14.754Z,22.14
2019-06-26T01:49:14.989Z,22.25
2019-06-26T01:50:15.220Z,22.18
2019-06-26T01:51:15.453Z,22.23
2019-06-26T01:52:15.717Z,22.23
2019-06-26T01:53:15.917Z,22.26
2019-06-26T01:54:16.146Z,22.29
2019-06-26T01:55:16.380Z,22.18
2019-06-26T01:56:16.611Z,22.18
2019-06-26T01:57:16.838Z,22.23
2019-06-26T01:58:17.075Z,22.20
2019-06-26T01:59:17.306Z,22.11
2019-06-26T02:00:17.535Z,22.10
2019-06-26T02:01:17.764Z,22.14
2019-06-26T02:02:17.995Z,22.17
2019-06-26T02:03:18.228Z,22.18
2019-06-26T02:04:18.459Z,22.22
2019-06-26T02:05:18.690Z,22.15
2019-06-26T02:06:18.920Z,22.20
2019-06-26T02:07:19.153Z,22.17
2019-06-26T02:08:19.382Z,22.22
2019-06-26T02:09:19.614Z,22.14
2019-06-26T02:10:19.845Z,22.11
2019-06-26T02:11:20.077Z,22.07
2019-06-26T02:12:20.315Z,21.98
2019-06-26T02:13:20.539Z,22.04
2019-06-26T02:14:30.632Z,21.98
2019-06-26T02:15:21.007Z,22.06
2019-06-26T02:16:21.237Z,22.11
2019-06-26T02:17:21.504Z,22.04
2019-06-26T02:18:21.700Z,21.99
2019-06-26T02:19:21.931Z,21.98
2019-06-26T02:20:22.158Z,21.80
2019-06-26T02:21:22.390Z,21.88
2019-06-26T02:22:22.622Z,22.00
2019-06-26T02:23:22.855Z,22.06
2019-06-26T02:24:23.088Z,21.99
2019-06-26T02:25:23.325Z,21.99
2019-06-26T02:26:23.554Z,21.83
2019-06-26T02:27:23.787Z,21.88
2019-06-26T02:28:24.021Z,21.79
2019-06-26T02:29:24.247Z,21.79
2019-06-26T02:30:24.482Z,21.88
2019-06-26T02:31:24.734Z,21.82
2019-06-26T02:32:24.945Z,21.75
2019-06-26T02:33:25.178Z,21.82
2019-06-26T02:34:25.410Z,21.77
2019-06-26T02:35:25.642Z,21.72
2019-06-26T02:36:25.870Z,21.70
2019-06-26T02:37:26.100Z,21.66
2019-06-26T02:38:26.336Z,21.77
2019-06-26T02:39:26.561Z,21.75
2019-06-26T02:40:26.800Z,21.61
2019-06-26T02:41:27.024Z,21.67
2019-06-26T02:42:27.256Z,21.69
2019-06-26T02:43:27.486Z,21.60
2019-06-26T02:44:27.719Z,21.46
2019-06-26T02:45:27.951Z,21.45
2019-06-26T02:46:28.185Z,21.51
2019-06-26T02:47:28.415Z,21.58
2019-06-26T02:48:28.668Z,21.60
2019-06-26T02:49:28.877Z,21.57
2019-06-26T02:50:29.108Z,21.58
2019-06-26T02:51:29.338Z,21.61
2019-06-26T02:52:29.567Z,21.60
2019-06-26T02:53:29.799Z,21.62
2019-06-26T02:54:30.031Z,21.69
2019-06-26T02:55:30.261Z,21.72
2019-06-26T02:56:30.497Z,21.61
2019-06-26T02:57:30.727Z,21.67
2019-06-26T02:58:30.975Z,21.69
2019-06-26T02:59:31.192Z,21.61
2019-06-26T03:00:31.422Z,21.64
2019-06-26T03:01:31.653Z,21.66
2019-06-26T03:02:31.885Z,21.55
2019-06-26T03:03:32.113Z,21.67
2019-06-26T03:04:32.353Z,21.64
2019-06-26T03:05:32.578Z,21.66
2019-06-26T03:06:32.807Z,21.72
2019-06-26T03:07:33.042Z,21.79
2019-06-26T03:08:33.272Z,21.72
2019-06-26T03:09:33.503Z,21.55
2019-06-26T03:10:33.737Z,21.67
2019-06-26T03:11:33.967Z,21.55
2019-06-26T03:12:34.201Z,21.64
2019-06-26T03:13:34.430Z,21.66
2019-06-26T03:14:34.663Z,21.70
2019-06-26T03:15:34.912Z,21.70
2019-06-26T03:16:35.144Z,21.75
2019-06-26T03:17:35.378Z,21.73
2019-06-26T03:18:35.613Z,21.70
2019-06-26T03:19:35.841Z,21.64
2019-06-26T03:20:36.073Z,21.69
2019-06-26T03:21:36.310Z,21.64
2019-06-26T03:22:36.538Z,21.61
2019-06-26T03:23:36.771Z,21.70
2019-06-26T03:24:37.002Z,21.73
2019-06-26T03:25:37.233Z,21.83
2019-06-26T03:26:37.464Z,21.88
2019-06-26T03:27:37.693Z,21.91
2019-06-26T03:28:37.926Z,21.82
2019-06-26T03:29:38.158Z,21.92
2019-06-26T03:30:38.390Z,22.04
2019-06-26T03:31:38.623Z,22.10
2019-06-26T03:32:38.898Z,22.15
2019-06-26T03:33:39.083Z,22.14
2019-06-26T03:34:39.313Z,22.18
2019-06-26T03:35:40.859Z,22.22
2019-06-26T03:36:39.778Z,22.23
2019-06-26T03:37:40.010Z,22.15
2019-06-26T03:38:40.246Z,22.15
2019-06-26T03:39:40.477Z,22.23
2019-06-26T03:40:40.743Z,22.23
2019-06-26T03:41:40.973Z,22.15
2019-06-26T03:42:41.205Z,22.11
2019-06-26T03:43:41.436Z,22.18
2019-06-26T03:44:41.671Z,22.20
2019-06-26T03:45:41.901Z,22.11
2019-06-26T03:46:42.134Z,22.25
2019-06-26T03:47:42.367Z,22.11
2019-06-26T03:48:42.598Z,22.23
2019-06-26T03:49:42.832Z,22.32
2019-06-26T03:50:43.061Z,22.35
2019-06-26T03:51:43.294Z,22.44
2019-06-26T03:52:43.532Z,22.55
2019-06-26T03:53:43.757Z,22.93
2019-06-26T03:54:43.989Z,23.20
2019-06-26T03:55:44.226Z,23.41
2019-06-26T03:56:44.456Z,23.58
2019-06-26T03:57:44.689Z,23.87
2019-06-26T03:58:44.930Z,24.05
2019-06-26T03:59:45.168Z,24.42
2019-06-26T04:00:45.400Z,24.57
2019-06-26T04:01:45.631Z,24.65
2019-06-26T04:02:45.863Z,24.78
2019-06-26T04:03:46.098Z,25.01
2019-06-26T04:04:46.344Z,25.29
2019-06-26T04:05:46.560Z,25.53
2019-06-26T04:06:46.843Z,25.77
2019-06-26T04:07:47.026Z,25.63
2019-06-26T04:08:47.258Z,25.83
2019-06-26T04:09:47.491Z,25.78
2019-06-26T04:10:47.730Z,25.93
2019-06-26T04:11:47.972Z,26.09
2019-06-26T04:12:48.196Z,26.10
2019-06-26T04:13:48.432Z,26.47
2019-06-26T04:14:48.668Z,26.63
2019-06-26T04:15:51.073Z,26.70
2019-06-26T04:16:49.132Z,26.84
2019-06-26T04:17:49.364Z,27.02
2019-06-26T04:18:49.599Z,27.14
2019-06-26T04:19:49.834Z,27.44
2019-06-26T04:20:50.067Z,27.48
2019-06-26T04:21:50.308Z,27.80
2019-06-26T04:22:50.537Z,27.83
2019-06-26T04:23:50.770Z,28.05
2019-06-26T04:24:51.005Z,27.93
2019-06-26T04:25:51.247Z,28.12
2019-06-26T04:26:51.476Z,28.38
2019-06-26T04:27:51.707Z,28.57
2019-06-26T04:28:51.956Z,28.85
2019-06-26T04:29:52.177Z,28.97
2019-06-26T04:30:52.415Z,28.78
2019-06-26T04:31:52.652Z,28.88
2019-06-26T04:32:52.887Z,28.59
2019-06-26T04:33:53.130Z,28.51
2019-06-26T04:34:54.555Z,28.48
2019-06-26T04:35:53.597Z,28.75
2019-06-26T04:36:53.978Z,28.98
2019-06-26T04:37:54.068Z,29.22
2019-06-26T04:38:54.306Z,29.24
2019-06-26T04:39:54.578Z,29.45
2019-06-26T04:40:54.782Z,29.71
2019-06-26T04:41:55.014Z,30.24
2019-06-26T04:42:55.252Z,30.59
2019-06-26T04:43:55.515Z,30.73
2019-06-26T04:44:55.735Z,30.84
2019-06-26T04:45:58.576Z,31.18
2019-06-26T04:46:56.205Z,31.64
2019-06-26T04:47:56.443Z,31.07
2019-06-26T04:48:56.678Z,31.66
2019-06-26T04:49:56.919Z,31.81
2019-06-26T04:50:57.157Z,32.01
2019-06-26T04:51:57.394Z,31.96
2019-06-26T04:52:57.634Z,32.14
2019-06-26T04:53:57.881Z,32.15
2019-06-26T04:54:58.108Z,32.31
2019-06-26T04:55:58.373Z,32.34
2019-06-26T04:56:58.593Z,32.67
2019-06-26T04:57:58.833Z,32.75
2019-06-26T04:58:59.072Z,32.74
2019-06-26T04:59:59.310Z,32.73
2019-06-26T05:00:59.564Z,32.60
2019-06-26T05:01:59.789Z,32.58
2019-06-26T05:03:00.036Z,32.56
2019-06-26T05:04:00.266Z,32.77
2019-06-26T05:05:00.506Z,32.70
2019-06-26T05:06:00.746Z,33.27
2019-06-26T05:07:00.987Z,32.96
2019-06-26T05:08:01.276Z,32.73
2019-06-26T05:09:01.459Z,32.49
2019-06-26T05:10:01.701Z,32.38
2019-06-26T05:11:01.942Z,32.55
2019-06-26T05:12:02.183Z,32.85
2019-06-26T05:13:02.417Z,32.93
2019-06-26T05:14:02.658Z,32.59
2019-06-26T05:15:02.899Z,32.89
2019-06-26T05:16:14.425Z,32.71
2019-06-26T05:17:03.437Z,32.40
2019-06-26T05:18:03.628Z,32.59
2019-06-26T05:19:03.870Z,32.40
2019-06-26T05:20:04.107Z,32.33
2019-06-26T05:21:04.348Z,32.38
2019-06-26T05:22:04.600Z,32.33
2019-06-26T05:23:04.840Z,32.82
2019-06-26T05:24:05.082Z,32.59
2019-06-26T05:25:05.327Z,32.65
2019-06-26T05:26:05.558Z,32.97
2019-06-26T05:27:05.799Z,33.57
2019-06-26T05:28:08.294Z,33.81
2019-06-26T05:29:06.280Z,34.14
2019-06-26T05:30:06.523Z,34.02
2019-06-26T05:31:06.765Z,34.02
2019-06-26T05:32:07.004Z,34.18
2019-06-26T05:33:07.244Z,34.30
2019-06-26T05:34:10.694Z,34.13
2019-06-26T05:35:07.753Z,33.98
2019-06-26T05:36:07.967Z,34.02
2019-06-26T05:37:08.211Z,34.48
2019-06-26T05:38:08.448Z,34.35
2019-06-26T05:39:08.714Z,34.52
2019-06-26T05:40:08.937Z,34.14
2019-06-26T05:41:09.173Z,34.74
2019-06-26T05:42:09.414Z,34.66
2019-06-26T05:43:09.655Z,34.55
2019-06-26T05:44:09.898Z,35.15
2019-06-26T05:45:10.139Z,34.88
2019-06-26T05:46:10.380Z,34.83
2019-06-26T05:47:10.619Z,34.66
2019-06-26T05:48:10.862Z,34.71
2019-06-26T05:49:11.104Z,34.61
2019-06-26T05:50:11.345Z,34.43
2019-06-26T05:51:11.588Z,34.38
2019-06-26T05:52:11.828Z,34.38
2019-06-26T05:53:12.069Z,34.88
2019-06-26T05:54:12.312Z,35.07
2019-06-26T05:55:12.553Z,35.34
2019-06-26T05:56:12.817Z,35.73
2019-06-26T05:57:13.041Z,35.73
2019-06-26T05:58:13.277Z,35.80
2019-06-26T05:59:13.528Z,36.04
2019-06-26T06:00:13.786Z,35.88
2019-06-26T06:01:14.005Z,36.33
2019-06-26T06:02:14.254Z,36.68
2019-06-26T06:03:14.494Z,37.07
2019-06-26T06:04:14.735Z,37.07
2019-06-26T06:05:14.992Z,37.08
2019-06-26T06:06:15.276Z,36.95
2019-06-26T06:07:15.459Z,36.62
2019-06-26T06:08:15.699Z,36.49
2019-06-26T06:09:15.940Z,36.62
2019-06-26T06:10:16.179Z,36.58
2019-06-26T06:11:16.450Z,36.99
2019-06-26T06:12:16.665Z,37.10
2019-06-26T06:13:16.908Z,37.13
2019-06-26T06:14:17.150Z,36.55
2019-06-26T06:15:17.396Z,36.52
2019-06-26T06:16:17.634Z,36.31
2019-06-26T06:17:17.889Z,36.14
2019-06-26T06:18:18.120Z,35.95
2019-06-26T06:19:18.369Z,36.05
2019-06-26T06:20:18.605Z,36.42
2019-06-26T06:21:18.845Z,36.89
2019-06-26T06:22:19.096Z,37.06
2019-06-26T06:23:19.338Z,37.02
2019-06-26T06:24:19.590Z,36.86
2019-06-26T06:25:19.822Z,36.79
2019-06-26T06:26:20.066Z,37.36
2019-06-26T06:27:20.310Z,37.14
2019-06-26T06:28:20.562Z,37.29
2019-06-26T06:29:20.797Z,37.42
2019-06-26T06:30:21.039Z,37.89
2019-06-26T06:31:21.282Z,38.20
2019-06-26T06:32:21.660Z,38.68
2019-06-26T06:33:21.770Z,39.09
2019-06-26T06:34:22.010Z,38.80
2019-06-26T06:35:22.254Z,39.12
2019-06-26T06:36:22.502Z,39.24
2019-06-26T06:37:22.741Z,39.58
2019-06-26T06:38:22.985Z,39.52
2019-06-26T06:39:23.229Z,39.62
2019-06-26T06:40:23.472Z,39.02
2019-06-26T06:41:23.712Z,39.03
2019-06-26T06:42:23.959Z,38.89
2019-06-26T06:43:24.198Z,39.46
2019-06-26T06:44:24.437Z,39.33
2019-06-26T06:45:24.678Z,39.09
2019-06-26T06:46:24.920Z,39.14
2019-06-26T06:47:25.166Z,39.48
2019-06-26T06:48:25.419Z,39.53
2019-06-26T06:49:25.658Z,39.70
2019-06-26T06:50:25.891Z,39.56
2019-06-26T06:51:26.136Z,39.31
2019-06-26T06:52:26.376Z,39.59
2019-06-26T06:53:26.617Z,39.83
2019-06-26T06:54:26.859Z,39.87
2019-06-26T06:55:27.101Z,39.60
2019-06-26T06:56:27.348Z,39.81
2019-06-26T06:57:27.610Z,39.92
2019-06-26T06:58:30.148Z,39.56
2019-06-26T06:59:28.078Z,39.46
2019-06-26T07:00:28.312Z,39.40
2019-06-26T07:01:28.581Z,39.36
2019-06-26T07:02:28.860Z,39.07
2019-06-26T07:03:29.044Z,38.91
2019-06-26T07:04:29.538Z,38.76
2019-06-26T07:05:29.523Z,38.83
2019-06-26T07:06:29.765Z,38.57
2019-06-26T07:07:30.012Z,38.48
2019-06-26T07:08:30.256Z,38.40
2019-06-26T07:09:30.500Z,37.99
2019-06-26T07:10:30.740Z,37.89
2019-06-26T07:11:30.985Z,37.63
2019-06-26T07:12:31.237Z,37.32
2019-06-26T07:13:31.463Z,36.73
2019-06-26T07:14:31.709Z,36.91
2019-06-26T07:15:31.951Z,36.76
2019-06-26T07:16:32.190Z,36.47
2019-06-26T07:17:32.432Z,36.49
2019-06-26T07:18:32.673Z,36.18
2019-06-26T07:19:32.915Z,35.73
2019-06-26T07:20:33.155Z,35.49
2019-06-26T07:21:33.403Z,35.55
2019-06-26T07:22:33.640Z,35.51
2019-06-26T07:23:33.881Z,35.29
2019-06-26T07:24:34.124Z,35.29
2019-06-26T07:25:34.365Z,35.12
2019-06-26T07:26:34.604Z,34.90
2019-06-26T07:27:34.841Z,35.02
2019-06-26T07:28:35.078Z,34.77
2019-06-26T07:29:35.320Z,34.85
2019-06-26T07:30:35.557Z,34.99
2019-06-26T07:31:38.462Z,34.97
2019-06-26T07:32:36.039Z,35.14
2019-06-26T07:33:36.285Z,34.89
2019-06-26T07:34:36.517Z,34.97
2019-06-26T07:35:36.758Z,34.92
2019-06-26T07:36:37.005Z,35.12
2019-06-26T07:37:37.247Z,35.33
2019-06-26T07:38:37.485Z,35.36
2019-06-26T07:39:37.718Z,35.34
2019-06-26T07:40:37.961Z,35.17
2019-06-26T07:41:38.198Z,35.37
2019-06-26T07:42:38.438Z,35.26
2019-06-26T07:43:38.680Z,35.24
2019-06-26T07:44:38.971Z,35.04
2019-06-26T07:45:39.160Z,35.10
2019-06-26T07:46:39.410Z,35.12
2019-06-26T07:47:43.474Z,35.07
2019-06-26T07:48:39.878Z,35.12
2019-06-26T07:49:40.117Z,35.24
2019-06-26T07:50:40.369Z,35.05
2019-06-26T07:51:40.691Z,34.75
2019-06-26T07:52:40.830Z,34.88
2019-06-26T07:53:41.069Z,34.70
2019-06-26T07:54:41.322Z,34.21
2019-06-26T07:55:41.549Z,34.21
2019-06-26T07:56:41.788Z,34.25
2019-06-26T07:57:42.096Z,34.36
2019-06-26T07:58:42.269Z,34.58
2019-06-26T07:59:42.513Z,34.67
2019-06-26T08:00:42.751Z,34.54
2019-06-26T08:01:42.987Z,34.75
2019-06-26T08:02:43.228Z,34.58
2019-06-26T08:03:43.465Z,34.70
2019-06-26T08:04:43.699Z,34.55
2019-06-26T08:05:43.945Z,34.45
2019-06-26T08:06:44.186Z,34.40
2019-06-26T08:07:44.422Z,34.52
2019-06-26T08:08:44.685Z,34.73
2019-06-26T08:09:44.905Z,34.70
2019-06-26T08:10:45.155Z,34.86
2019-06-26T08:11:45.381Z,34.86
2019-06-26T08:12:45.639Z,34.64
2019-06-26T08:13:45.857Z,34.77
2019-06-26T08:14:46.095Z,34.67
2019-06-26T08:15:46.331Z,34.93
2019-06-26T08:16:46.578Z,34.75
2019-06-26T08:17:59.799Z,34.74
2019-06-26T08:18:47.051Z,34.86
2019-06-26T08:19:47.286Z,34.85
2019-06-26T08:21:00.744Z,34.80
2019-06-26T08:21:47.761Z,34.85
2019-06-26T08:22:48.000Z,34.88
2019-06-26T08:23:48.236Z,34.93
2019-06-26T08:24:48.475Z,34.95
2019-06-26T08:25:48.713Z,34.75
2019-06-26T08:26:48.954Z,34.70
2019-06-26T08:27:49.188Z,34.75
2019-06-26T08:28:49.426Z,34.95
2019-06-26T08:29:49.668Z,34.85
2019-06-26T08:30:49.915Z,34.83
2019-06-26T08:31:50.149Z,34.74
2019-06-26T08:32:50.429Z,34.57
2019-06-26T08:33:50.638Z,34.77
2019-06-26T08:34:50.868Z,34.88
2019-06-26T08:35:51.107Z,34.89
2019-06-26T08:36:51.344Z,34.86
2019-06-26T08:38:05.690Z,34.85
2019-06-26T08:38:51.823Z,35.07
2019-06-26T08:39:52.064Z,35.07
2019-06-26T08:40:52.306Z,35.17
2019-06-26T08:41:52.553Z,35.23
2019-06-26T08:42:52.784Z,35.14
2019-06-26T08:43:53.025Z,35.17
2019-06-26T08:44:53.260Z,35.05
2019-06-26T08:45:53.501Z,35.14
2019-06-26T08:46:53.740Z,35.24
2019-06-26T08:47:54.020Z,35.12
2019-06-26T08:48:54.234Z,35.05
2019-06-26T08:49:54.457Z,35.02
2019-06-26T08:50:54.696Z,35.19
2019-06-26T08:51:54.936Z,35.23
2019-06-26T08:52:55.175Z,35.22
2019-06-26T08:53:55.417Z,35.27
2019-06-26T08:54:55.691Z,34.99
2019-06-26T08:55:55.935Z,35.10
2019-06-26T08:56:56.170Z,35.29
2019-06-26T08:57:56.406Z,35.33
2019-06-26T08:58:56.644Z,35.45
2019-06-26T08:59:56.889Z,35.46
2019-06-26T09:00:57.129Z,35.46
2019-06-26T09:01:57.377Z,35.53
2019-06-26T09:02:57.605Z,35.76
2019-06-26T09:03:57.844Z,35.76
2019-06-26T09:04:58.086Z,35.90
2019-06-26T09:05:58.325Z,36.09
2019-06-26T09:06:58.563Z,36.21
2019-06-26T09:07:58.810Z,36.21
2019-06-26T09:08:59.040Z,36.12
2019-06-26T09:09:59.279Z,36.18
2019-06-26T09:10:59.519Z,36.39
2019-06-26T09:11:59.766Z,36.35
2019-06-26T09:13:00.003Z,36.35
2019-06-26T09:14:00.250Z,36.35
2019-06-26T09:15:00.479Z,36.17
2019-06-26T09:16:00.720Z,36.23
2019-06-26T09:17:00.956Z,36.35
2019-06-26T09:18:01.196Z,36.08
2019-06-26T09:19:01.434Z,36.20
2019-06-26T09:20:01.743Z,36.43
2019-06-26T09:21:01.931Z,36.35
2019-06-26T09:22:02.154Z,36.45
2019-06-26T09:23:02.411Z,36.46
2019-06-26T09:24:02.639Z,36.52
2019-06-26T09:25:19.834Z,36.57
2019-06-26T09:26:03.122Z,36.58
2019-06-26T09:27:03.352Z,36.89
2019-06-26T09:28:03.594Z,36.79
2019-06-26T09:29:03.831Z,36.73
2019-06-26T09:30:04.069Z,36.59
2019-06-26T09:31:04.311Z,36.30
2019-06-26T09:32:04.551Z,36.58
2019-06-26T09:33:04.791Z,36.62
2019-06-26T09:34:05.027Z,36.61
2019-06-26T09:35:05.267Z,36.59
2019-06-26T09:36:06.951Z,36.58
2019-06-26T09:37:05.757Z,36.72
2019-06-26T09:38:05.984Z,36.79
2019-06-26T09:39:06.223Z,36.89
2019-06-26T09:40:06.624Z,37.13
2019-06-26T09:41:06.700Z,37.10
2019-06-26T09:42:06.942Z,37.21
2019-06-26T09:43:07.184Z,37.28
2019-06-26T09:44:07.423Z,37.37
2019-06-26T09:45:07.664Z,37.44
2019-06-26T09:46:07.903Z,37.47
2019-06-26T09:47:08.143Z,37.67
2019-06-26T09:48:08.390Z,37.71
2019-06-26T09:49:08.621Z,37.82
2019-06-26T09:50:08.866Z,37.89
2019-06-26T09:51:09.136Z,37.75
2019-06-26T09:52:09.341Z,37.71
2019-06-26T09:53:09.587Z,37.82
2019-06-26T09:54:09.833Z,37.86
2019-06-26T09:55:10.084Z,37.89
2019-06-26T09:56:10.307Z,38.01
2019-06-26T09:57:10.543Z,37.67
2019-06-26T09:58:13.148Z,37.64
2019-06-26T09:59:11.024Z,37.72
2019-06-26T10:00:11.264Z,37.59
2019-06-26T10:01:11.504Z,37.53
2019-06-26T10:02:11.739Z,37.53
2019-06-26T10:03:11.981Z,37.67
2019-06-26T10:04:12.222Z,37.80
2019-06-26T10:05:12.462Z,37.78
2019-06-26T10:06:12.702Z,37.90
2019-06-26T10:07:12.953Z,37.94
2019-06-26T10:08:13.182Z,37.96
2019-06-26T10:09:13.424Z,38.04
2019-06-26T10:10:13.685Z,38.02
2019-06-26T10:11:13.902Z,37.99
2019-06-26T10:12:14.145Z,37.90
2019-06-26T10:13:14.390Z,38.02
2019-06-26T10:14:14.625Z,37.93
2019-06-26T10:15:14.865Z,37.74
2019-06-26T10:16:15.104Z,37.80
2019-06-26T10:17:15.348Z,37.87
2019-06-26T10:18:15.580Z,37.89
2019-06-26T10:19:15.838Z,37.82
2019-06-26T10:20:16.061Z,37.70
2019-06-26T10:21:16.303Z,37.71
2019-06-26T10:22:16.541Z,37.74
2019-06-26T10:23:16.773Z,37.80
2019-06-26T10:24:17.011Z,37.86
2019-06-26T10:25:17.254Z,37.86
2019-06-26T10:26:17.493Z,37.94
2019-06-26T10:27:17.734Z,37.97
2019-06-26T10:28:17.977Z,37.72
2019-06-26T10:29:18.216Z,37.77
2019-06-26T10:30:18.486Z,37.77
2019-06-26T10:31:18.710Z,37.86
2019-06-26T10:32:18.937Z,37.65
2019-06-26T10:33:19.178Z,37.64
2019-06-26T10:34:19.471Z,37.68
2019-06-26T10:35:19.658Z,37.53
2019-06-26T10:36:19.899Z,37.33
2019-06-26T10:37:20.139Z,37.36
2019-06-26T10:38:20.415Z,37.35
2019-06-26T10:39:20.618Z,37.33
2019-06-26T10:40:20.855Z,37.37
2019-06-26T10:41:21.096Z,37.44
2019-06-26T10:42:21.337Z,37.47
2019-06-26T10:43:21.578Z,37.42
2019-06-26T10:44:21.819Z,37.53
2019-06-26T10:45:22.058Z,37.58
2019-06-26T10:46:22.323Z,37.58
2019-06-26T10:47:22.538Z,37.55
2019-06-26T10:48:22.777Z,37.44
2019-06-26T10:49:27.570Z,37.49
2019-06-26T10:50:23.306Z,37.56
2019-06-26T10:51:23.497Z,37.63
2019-06-26T10:52:23.735Z,37.60
2019-06-26T10:53:23.976Z,37.72
2019-06-26T10:54:24.220Z,37.59
2019-06-26T10:55:24.459Z,37.39
2019-06-26T10:56:28.297Z,37.21
2019-06-26T10:57:24.936Z,37.07
2019-06-26T10:58:25.185Z,37.06
2019-06-26T10:59:25.418Z,37.07
2019-06-26T11:00:25.663Z,37.10
2019-06-26T11:01:25.898Z,37.26
2019-06-26T11:02:26.148Z,37.29
2019-06-26T11:03:26.379Z,37.36
2019-06-26T11:04:26.620Z,37.30
2019-06-26T11:05:26.856Z,37.45
2019-06-26T11:06:27.106Z,37.47
2019-06-26T11:07:27.338Z,37.40
2019-06-26T11:08:27.577Z,37.40
2019-06-26T11:09:27.817Z,37.36
2019-06-26T11:10:28.058Z,37.37
2019-06-26T11:11:28.298Z,37.15
2019-06-26T11:12:28.537Z,37.29
2019-06-26T11:13:28.778Z,37.39
2019-06-26T11:14:29.018Z,37.40
2019-06-26T11:15:29.257Z,37.55
2019-06-26T11:16:29.505Z,37.40
2019-06-26T11:17:29.740Z,37.45
2019-06-26T11:18:29.976Z,37.32
2019-06-26T11:19:43.471Z,37.23
2019-06-26T11:20:30.460Z,37.23
2019-06-26T11:21:30.701Z,37.14
2019-06-26T11:22:30.938Z,36.98
2019-06-26T11:23:31.179Z,36.99
2019-06-26T11:24:31.421Z,36.84
2019-06-26T11:25:31.661Z,36.74
2019-06-26T11:26:31.901Z,36.92
2019-06-26T11:27:32.140Z,36.79
2019-06-26T11:28:32.381Z,36.72
2019-06-26T11:29:32.619Z,36.70
2019-06-26T11:30:32.859Z,36.76
2019-06-26T11:31:33.098Z,36.67
2019-06-26T11:32:33.336Z,36.68
2019-06-26T11:33:33.573Z,36.80
2019-06-26T11:34:33.803Z,37.03
2019-06-26T11:35:34.041Z,37.03
2019-06-26T11:36:34.279Z,37.03
2019-06-26T11:37:34.517Z,37.23
2019-06-26T11:38:34.760Z,37.21
2019-06-26T11:39:34.998Z,37.36
2019-06-26T11:40:35.238Z,37.28
2019-06-26T11:41:35.477Z,37.33
2019-06-26T11:42:35.716Z,37.49
2019-06-26T11:43:35.972Z,37.47
2019-06-26T11:44:36.197Z,37.51
2019-06-26T11:45:36.436Z,37.56
2019-06-26T11:46:37.097Z,37.60
2019-06-26T11:47:36.914Z,37.67
2019-06-26T11:48:37.173Z,37.70
2019-06-26T11:49:37.499Z,37.75
2019-06-26T11:50:37.634Z,37.82
2019-06-26T11:51:37.867Z,37.84
2019-06-26T11:52:38.106Z,37.94
2019-06-26T11:53:38.355Z,37.97
2019-06-26T11:54:38.595Z,38.02
2019-06-26T11:55:38.835Z,38.04
2019-06-26T11:56:39.085Z,37.99
2019-06-26T11:57:39.339Z,38.04
2019-06-26T11:58:39.554Z,37.93
2019-06-26T11:59:39.785Z,37.94
2019-06-26T12:00:41.649Z,37.92
2019-06-26T12:01:40.267Z,37.97
2019-06-26T12:02:40.511Z,37.84
2019-06-26T12:03:40.749Z,37.84
2019-06-26T12:04:40.986Z,37.87
2019-06-26T12:05:41.233Z,37.86
2019-06-26T12:06:41.468Z,37.93
2019-06-26T12:07:41.706Z,37.92
2019-06-26T12:08:41.945Z,37.94
2019-06-26T12:09:42.209Z,37.93
2019-06-26T12:10:42.420Z,37.90
2019-06-26T12:11:42.773Z,37.89
2019-06-26T12:12:42.904Z,37.99
2019-06-26T12:13:43.155Z,38.05
2019-06-26T12:14:43.380Z,37.86
2019-06-26T12:15:43.623Z,37.89
2019-06-26T12:16:43.867Z,37.93
2019-06-26T12:17:44.104Z,37.96
2019-06-26T12:18:44.343Z,37.78
2019-06-26T12:19:44.708Z,37.48
2019-06-26T12:20:44.823Z,37.39
2019-06-26T12:21:46.987Z,37.28
2019-06-26T12:22:45.346Z,37.36
2019-06-26T12:23:45.578Z,37.30
2019-06-26T12:24:45.816Z,37.33
2019-06-26T12:25:46.056Z,37.29
2019-06-26T12:26:46.299Z,37.37
2019-06-26T12:27:46.536Z,37.37
2019-06-26T12:28:46.777Z,37.44
2019-06-26T12:29:47.018Z,37.58
2019-06-26T12:30:47.280Z,37.55
2019-06-26T12:31:47.496Z,37.58
2019-06-26T12:33:02.342Z,37.72
2019-06-26T12:33:47.976Z,37.72
2019-06-26T12:34:48.235Z,37.78
2019-06-26T12:35:48.518Z,37.77
2019-06-26T12:36:48.758Z,37.78
2019-06-26T12:37:48.943Z,37.56
2019-06-26T12:38:49.232Z,37.53
2019-06-26T12:39:49.421Z,37.47
2019-06-26T12:40:49.661Z,37.40
2019-06-26T12:41:49.904Z,37.39
2019-06-26T12:42:50.146Z,37.36
2019-06-26T12:43:50.385Z,37.49
2019-06-26T12:44:50.620Z,37.49
2019-06-26T12:45:50.865Z,37.58
2019-06-26T12:46:51.101Z,37.64
2019-06-26T12:47:51.340Z,37.68
2019-06-26T12:48:51.583Z,37.65
2019-06-26T12:49:51.821Z,37.75
2019-06-26T12:50:52.063Z,37.71
2019-06-26T12:51:52.366Z,37.74
2019-06-26T12:52:52.543Z,37.82
2019-06-26T12:53:52.820Z,37.86
2019-06-26T12:54:53.026Z,37.84
2019-06-26T12:55:53.258Z,37.89